createdAt,value
2024-01-26T00:02:02.125Z,79.23
2024-01-26T00:04:30.339Z,79.37
2024-01-26T00:06:58.682Z,79.67
2024-01-26T00:09:26.742Z,79.80
2024-01-26T00:11:54.574Z,79.88
2024-01-26T00:14:22.143Z,80.35
2024-01-26T00:16:49.693Z,80.87
2024-01-26T00:19:17.444Z,81.22
2024-01-26T00:21:45.256Z,81.45
2024-01-26T00:24:12.878Z,81.61
2024-01-26T00:26:40.443Z,81.57
2024-01-26T00:29:08.011Z,81.35
2024-01-26T00:31:35.997Z,81.39
2024-01-26T00:34:03.602Z,81.84
2024-01-26T00:36:31.549Z,81.85
2024-01-26T00:38:59.152Z,81.79
2024-01-26T00:41:26.721Z,81.97
2024-01-26T00:43:54.292Z,82.21
2024-01-26T00:46:21.847Z,82.35
2024-01-26T00:48:49.511Z,82.60
2024-01-26T00:51:17.367Z,82.70
2024-01-26T00:53:45.026Z,82.54
2024-01-26T00:56:12.582Z,82.28
2024-01-26T00:58:40.144Z,82.13
2024-01-26T01:01:07.798Z,81.93
2024-01-26T01:03:35.617Z,81.70
2024-01-26T01:06:03.415Z,81.39
2024-01-26T01:08:31.259Z,81.31
2024-01-26T01:10:58.953Z,81.62
2024-01-26T01:13:26.626Z,81.53
2024-01-26T01:15:54.290Z,81.91
2024-01-26T01:18:21.913Z,82.07
2024-01-26T01:20:50.061Z,82.25
2024-01-26T01:23:17.694Z,82.87
2024-01-26T01:25:45.331Z,82.76
2024-01-26T01:28:12.900Z,82.66
2024-01-26T01:30:40.565Z,82.38
2024-01-26T01:33:08.264Z,82.39
2024-01-26T01:35:36.022Z,82.31
2024-01-26T01:38:03.871Z,82.31
2024-01-26T01:40:31.629Z,82.29
2024-01-26T01:42:59.179Z,82.46
2024-01-26T01:45:27.142Z,82.48
2024-01-26T01:47:54.761Z,82.61
2024-01-26T01:50:22.579Z,82.60
2024-01-26T01:52:50.234Z,82.69
2024-01-26T01:55:17.883Z,82.69
2024-01-26T01:57:45.453Z,82.64
2024-01-26T02:00:13.153Z,82.66
2024-01-26T02:02:40.703Z,82.62
2024-01-26T02:05:08.509Z,82.68
2024-01-26T02:07:36.303Z,82.64
2024-01-26T02:10:04.284Z,82.77
2024-01-26T02:12:31.940Z,82.77
2024-01-26T02:14:59.705Z,82.81
2024-01-26T02:17:27.375Z,82.94
2024-01-26T02:19:54.921Z,82.79
2024-01-26T02:22:22.570Z,82.68
2024-01-26T02:24:50.737Z,83.06
2024-01-26T02:27:19.052Z,82.77
2024-01-26T02:29:46.764Z,82.76
2024-01-26T02:32:14.366Z,82.59
2024-01-26T02:34:42.057Z,82.54
2024-01-26T02:37:09.773Z,82.35
2024-01-26T02:39:37.435Z,82.43
2024-01-26T02:42:05.106Z,82.22
2024-01-26T02:44:32.901Z,82.39
2024-01-26T02:47:00.618Z,82.43
2024-01-26T02:49:28.268Z,82.27
2024-01-26T02:51:56.060Z,82.07
2024-01-26T02:54:24.575Z,81.97
2024-01-26T02:56:52.698Z,81.88
2024-01-26T02:59:20.665Z,81.78
2024-01-26T03:01:48.494Z,81.94
2024-01-26T03:04:16.409Z,82.11
2024-01-26T03:06:44.424Z,82.12
2024-01-26T03:09:12.256Z,82.33
2024-01-26T03:11:40.103Z,82.34
2024-01-26T03:14:08.041Z,82.70
2024-01-26T03:16:35.775Z,82.68
2024-01-26T03:19:03.680Z,82.67
2024-01-26T03:21:31.471Z,82.65
2024-01-26T03:23:59.095Z,82.52
2024-01-26T03:26:27.100Z,82.65
2024-01-26T03:28:54.759Z,82.47
2024-01-26T03:31:22.317Z,82.38
2024-01-26T03:33:50.182Z,82.24
2024-01-26T03:36:18.032Z,82.17
2024-01-26T03:38:45.868Z,82.36
2024-01-26T03:41:13.509Z,82.24
2024-01-26T03:43:41.142Z,82.25
2024-01-26T03:46:08.817Z,82.38
2024-01-26T03:48:36.533Z,82.36
2024-01-26T03:51:04.707Z,82.40
2024-01-26T03:53:32.546Z,82.52
2024-01-26T03:56:00.216Z,82.54
2024-01-26T03:58:27.937Z,82.60
2024-01-26T04:00:55.509Z,82.67
2024-01-26T04:03:23.252Z,82.74
2024-01-26T04:05:50.954Z,82.63
2024-01-26T04:08:18.575Z,82.82
2024-01-26T04:10:46.386Z,82.77
2024-01-26T04:13:13.996Z,82.78
2024-01-26T04:15:42.077Z,82.60
2024-01-26T04:18:09.826Z,82.54
2024-01-26T04:20:37.515Z,82.56
2024-01-26T04:23:05.148Z,82.36
2024-01-26T04:25:32.710Z,82.33
2024-01-26T04:28:00.690Z,82.24
2024-01-26T04:30:28.323Z,82.31
2024-01-26T04:32:56.025Z,82.20
2024-01-26T04:35:23.874Z,82.19
2024-01-26T04:37:51.448Z,82.27
2024-01-26T04:40:19.410Z,82.15
2024-01-26T04:42:46.966Z,82.10
2024-01-26T04:45:14.817Z,82.24
2024-01-26T04:47:42.763Z,82.20
2024-01-26T04:50:10.573Z,82.30
2024-01-26T04:52:40.635Z,82.32
2024-01-26T04:55:09.978Z,82.39
2024-01-26T04:57:37.630Z,82.37
2024-01-26T05:00:05.353Z,82.58
2024-01-26T05:02:33.184Z,82.70
2024-01-26T05:05:01.142Z,82.70
2024-01-26T05:07:28.790Z,82.57
2024-01-26T05:09:56.351Z,82.66
2024-01-26T05:12:23.911Z,82.79
2024-01-26T05:14:51.516Z,82.90
2024-01-26T05:17:19.275Z,82.83
2024-01-26T05:19:46.988Z,82.90
2024-01-26T05:22:14.763Z,82.88
2024-01-26T05:24:42.324Z,82.52
2024-01-26T05:27:10.066Z,82.64
2024-01-26T05:29:37.768Z,82.75
2024-01-26T05:32:05.826Z,82.83
2024-01-26T05:34:33.497Z,82.94
2024-01-26T05:37:01.249Z,82.92
2024-01-26T05:39:28.821Z,82.86
2024-01-26T05:41:56.449Z,82.97
2024-01-26T05:44:24.128Z,82.92
2024-01-26T05:46:51.792Z,82.94
2024-01-26T05:49:19.568Z,83.02
2024-01-26T05:51:47.222Z,82.96
2024-01-26T05:54:14.897Z,83.06
2024-01-26T05:56:42.695Z,83.19
2024-01-26T05:59:10.308Z,83.31
2024-01-26T06:01:37.966Z,83.33
2024-01-26T06:04:05.560Z,83.32
2024-01-26T06:06:33.358Z,83.44
2024-01-26T06:09:01.311Z,83.18
2024-01-26T06:11:29.024Z,83.00
2024-01-26T06:13:56.693Z,82.98
2024-01-26T06:16:24.788Z,83.06
2024-01-26T06:18:52.498Z,83.14
2024-01-26T06:21:20.540Z,82.94
2024-01-26T06:23:48.271Z,83.00
2024-01-26T06:26:15.920Z,83.17
2024-01-26T06:28:43.501Z,83.29
2024-01-26T06:31:11.139Z,83.17
2024-01-26T06:33:39.190Z,83.12
2024-01-26T06:36:07.038Z,83.03
2024-01-26T06:38:34.682Z,83.05
2024-01-26T06:41:02.394Z,82.91
2024-01-26T06:43:29.953Z,82.80
2024-01-26T06:45:58.038Z,82.55
2024-01-26T06:48:25.680Z,82.42
2024-01-26T06:50:53.364Z,82.44
2024-01-26T06:53:21.023Z,82.39
2024-01-26T06:55:50.160Z,82.22
2024-01-26T06:58:19.124Z,82.04
2024-01-26T07:00:46.743Z,82.07
2024-01-26T07:03:14.574Z,81.86
2024-01-26T07:05:42.528Z,81.98
2024-01-26T07:08:10.448Z,82.13
2024-01-26T07:10:38.115Z,82.01
2024-01-26T07:13:05.977Z,82.06
2024-01-26T07:15:33.525Z,81.85
2024-01-26T07:18:01.226Z,81.68
2024-01-26T07:20:28.877Z,81.43
2024-01-26T07:22:56.520Z,81.32
2024-01-26T07:25:24.178Z,81.10
2024-01-26T07:27:51.741Z,80.96
2024-01-26T07:30:19.475Z,80.94
2024-01-26T07:32:47.405Z,81.02
2024-01-26T07:35:15.135Z,81.14
2024-01-26T07:37:43.090Z,81.10
2024-01-26T07:40:10.672Z,80.67
2024-01-26T07:42:38.321Z,80.27
2024-01-26T07:45:05.988Z,80.10
2024-01-26T07:47:33.614Z,80.17
2024-01-26T07:50:01.371Z,80.05
2024-01-26T07:52:29.068Z,80.00
2024-01-26T07:54:56.618Z,79.89
2024-01-26T07:57:24.303Z,79.69
2024-01-26T07:59:51.991Z,79.77
2024-01-26T08:02:20.631Z,79.80
2024-01-26T08:04:50.040Z,79.65
2024-01-26T08:07:17.825Z,79.79
2024-01-26T08:09:45.836Z,79.63
2024-01-26T08:12:24.621Z,79.61
2024-01-26T08:15:01.300Z,79.46
2024-01-26T08:17:29.576Z,79.07
2024-01-26T08:19:57.247Z,78.88
2024-01-26T08:22:25.491Z,78.39
2024-01-26T08:24:53.466Z,78.02
2024-01-26T08:27:22.515Z,77.53
2024-01-26T08:29:50.363Z,77.36
2024-01-26T08:32:18.095Z,76.98
2024-01-26T08:34:45.973Z,76.69
2024-01-26T08:37:13.854Z,76.04
2024-01-26T08:39:41.504Z,75.41
2024-01-26T08:42:09.278Z,75.26
2024-01-26T08:44:36.838Z,75.11
2024-01-26T08:47:04.587Z,74.17
2024-01-26T08:49:32.227Z,73.67
2024-01-26T08:52:00.434Z,73.08
2024-01-26T08:54:28.016Z,72.05
2024-01-26T08:56:55.779Z,71.46
2024-01-26T08:59:23.403Z,70.59
2024-01-26T09:01:51.061Z,70.52
2024-01-26T09:04:18.745Z,69.61
2024-01-26T09:06:49.752Z,68.47
2024-01-26T09:09:19.712Z,68.17
2024-01-26T09:11:47.464Z,66.73
2024-01-26T09:14:15.003Z,62.74
2024-01-26T09:16:42.940Z,56.51
2024-01-26T09:19:10.645Z,52.67
2024-01-26T09:21:38.475Z,49.07
2024-01-26T09:24:06.216Z,45.78
2024-01-26T09:26:33.869Z,42.84
2024-01-26T09:29:01.804Z,40.16
2024-01-26T09:31:29.328Z,36.91
2024-01-26T09:33:57.010Z,36.84
2024-01-26T09:36:24.690Z,34.30
2024-01-26T09:38:52.389Z,32.88
2024-01-26T09:41:20.399Z,31.52
2024-01-26T09:43:47.944Z,29.81
2024-01-26T09:46:15.503Z,28.88
2024-01-26T09:48:43.336Z,27.91
2024-01-26T09:51:11.081Z,28.52
2024-01-26T09:53:38.978Z,28.48
2024-01-26T09:56:06.884Z,29.65
2024-01-26T09:58:34.426Z,28.97
2024-01-26T10:01:02.025Z,27.37
2024-01-26T10:03:33.717Z,27.10
2024-01-26T10:06:02.871Z,25.64
2024-01-26T10:08:30.508Z,25.02
2024-01-26T10:10:58.061Z,23.99
2024-01-26T10:13:25.818Z,23.04
2024-01-26T10:15:53.589Z,24.29
2024-01-26T10:18:21.540Z,24.45
2024-01-26T10:20:49.255Z,24.77
2024-01-26T10:23:17.076Z,24.47
2024-01-26T10:25:44.739Z,25.79
2024-01-26T10:28:12.309Z,27.74
2024-01-26T10:30:40.273Z,29.45
2024-01-26T10:33:08.473Z,31.15
2024-01-26T10:35:36.452Z,30.85
2024-01-26T10:38:04.082Z,30.56
2024-01-26T10:40:32.052Z,32.22
2024-01-26T10:42:59.805Z,32.95
2024-01-26T10:45:27.582Z,33.66
2024-01-26T10:47:55.328Z,33.51
2024-01-26T10:50:23.215Z,33.95
2024-01-26T10:52:51.356Z,32.97
2024-01-26T10:55:19.155Z,32.74
2024-01-26T10:57:47.120Z,31.54
2024-01-26T11:00:14.882Z,28.77
2024-01-26T11:02:42.848Z,27.17
2024-01-26T11:05:10.713Z,25.65
2024-01-26T11:07:38.370Z,25.82
2024-01-26T11:10:05.934Z,26.41
2024-01-26T11:12:33.593Z,23.64
2024-01-26T11:15:02.474Z,22.92
2024-01-26T11:17:30.764Z,23.15
2024-01-26T11:19:58.319Z,23.21
2024-01-26T11:22:26.080Z,24.44
2024-01-26T11:24:53.952Z,24.46
2024-01-26T11:27:21.702Z,25.42
2024-01-26T11:29:49.551Z,25.63
2024-01-26T11:32:17.245Z,25.26
2024-01-26T11:34:44.834Z,24.72
2024-01-26T11:37:12.463Z,26.49
2024-01-26T11:39:40.124Z,27.67
2024-01-26T11:42:07.860Z,30.21
2024-01-26T11:44:35.692Z,31.50
2024-01-26T11:47:03.411Z,32.77
2024-01-26T11:49:31.423Z,34.34
2024-01-26T11:51:59.258Z,35.81
2024-01-26T11:54:26.913Z,36.77
2024-01-26T11:56:55.005Z,37.65
2024-01-26T11:59:22.649Z,37.64
2024-01-26T12:01:50.309Z,38.04
2024-01-26T12:04:18.278Z,39.14
2024-01-26T12:06:47.602Z,39.60
2024-01-26T12:09:16.002Z,39.99
2024-01-26T12:11:43.731Z,40.66
2024-01-26T12:14:11.889Z,41.44
2024-01-26T12:16:39.652Z,42.14
2024-01-26T12:19:07.336Z,43.00
2024-01-26T12:21:35.078Z,43.61
2024-01-26T12:24:02.772Z,44.74
2024-01-26T12:26:30.400Z,45.14
2024-01-26T12:28:58.069Z,45.28
2024-01-26T12:31:25.625Z,45.43
2024-01-26T12:33:53.466Z,45.68
2024-01-26T12:36:22.702Z,45.56
2024-01-26T12:38:50.421Z,45.17
2024-01-26T12:41:18.212Z,44.33
2024-01-26T12:43:46.190Z,43.93
2024-01-26T12:46:14.447Z,43.96
2024-01-26T12:48:42.251Z,43.63
2024-01-26T12:51:10.139Z,43.50
2024-01-26T12:53:37.880Z,42.86
2024-01-26T12:56:05.409Z,43.09
2024-01-26T12:58:33.480Z,43.79
2024-01-26T13:01:01.172Z,43.91
2024-01-26T13:03:29.090Z,44.00
2024-01-26T13:05:57.040Z,44.89
2024-01-26T13:08:24.744Z,45.69
2024-01-26T13:10:52.422Z,45.93
2024-01-26T13:13:19.976Z,46.52
2024-01-26T13:15:47.528Z,47.37
2024-01-26T13:18:21.797Z,47.88
2024-01-26T13:20:56.540Z,48.43
2024-01-26T13:23:24.774Z,48.61
2024-01-26T13:25:52.401Z,48.79
2024-01-26T13:28:19.964Z,48.80
2024-01-26T13:30:47.529Z,48.72
2024-01-26T13:33:15.210Z,48.87
2024-01-26T13:35:43.151Z,49.17
2024-01-26T13:38:10.819Z,49.71
2024-01-26T13:40:38.473Z,50.13
2024-01-26T13:43:06.033Z,50.35
2024-01-26T13:45:34.170Z,50.72
2024-01-26T13:48:07.789Z,50.99
2024-01-26T13:50:39.751Z,51.02
2024-01-26T13:53:07.845Z,51.03
2024-01-26T13:55:35.499Z,51.02
2024-01-26T13:58:03.266Z,51.06
2024-01-26T14:00:30.972Z,51.40
2024-01-26T14:02:58.895Z,51.48
2024-01-26T14:05:26.692Z,51.91
2024-01-26T14:07:54.426Z,51.93
2024-01-26T14:10:22.401Z,52.26
2024-01-26T14:12:50.091Z,52.67
2024-01-26T14:15:17.908Z,53.13
2024-01-26T14:17:45.751Z,53.58
2024-01-26T14:20:13.696Z,54.22
2024-01-26T14:22:41.445Z,54.68
2024-01-26T14:25:08.999Z,54.97
2024-01-26T14:27:36.645Z,55.37
2024-01-26T14:30:04.229Z,55.62
2024-01-26T14:32:31.994Z,56.14
2024-01-26T14:34:59.654Z,56.32
2024-01-26T14:37:29.035Z,56.56
2024-01-26T14:39:57.817Z,56.56
2024-01-26T14:42:25.496Z,56.69
2024-01-26T14:44:53.313Z,56.82
2024-01-26T14:47:21.106Z,56.81
2024-01-26T14:49:48.764Z,57.07
2024-01-26T14:52:16.438Z,57.34
2024-01-26T14:54:44.494Z,57.54
2024-01-26T14:57:12.081Z,57.80
2024-01-26T14:59:40.156Z,58.08
2024-01-26T15:02:07.698Z,58.46
2024-01-26T15:04:35.387Z,58.83
2024-01-26T15:07:03.156Z,58.96
2024-01-26T15:09:31.023Z,58.93
2024-01-26T15:11:58.966Z,59.28
2024-01-26T15:14:26.711Z,59.57
2024-01-26T15:16:54.272Z,59.96
2024-01-26T15:19:22.194Z,60.43
2024-01-26T15:21:49.835Z,60.80
2024-01-26T15:24:17.726Z,61.18
2024-01-26T15:26:45.827Z,61.46
2024-01-26T15:29:13.726Z,61.70
2024-01-26T15:31:41.282Z,62.26
2024-01-26T15:34:09.102Z,62.76
2024-01-26T15:36:36.907Z,62.92
2024-01-26T15:39:04.701Z,63.08
2024-01-26T15:41:32.362Z,63.23
2024-01-26T15:44:00.101Z,63.86
2024-01-26T15:46:27.765Z,64.78
2024-01-26T15:48:55.534Z,65.21
2024-01-26T15:51:23.581Z,65.32
2024-01-26T15:53:51.197Z,65.57
2024-01-26T15:56:18.799Z,65.94
2024-01-26T15:58:46.471Z,66.13
2024-01-26T16:01:14.061Z,66.23
2024-01-26T16:03:41.796Z,66.46
2024-01-26T16:06:09.593Z,66.88
2024-01-26T16:08:37.473Z,67.16
2024-01-26T16:11:05.190Z,67.47
2024-01-26T16:13:32.748Z,67.72
2024-01-26T16:16:00.848Z,68.15
2024-01-26T16:18:28.820Z,68.45
2024-01-26T16:20:56.665Z,68.48
2024-01-26T16:23:24.330Z,68.64
2024-01-26T16:25:51.854Z,68.97
2024-01-26T16:28:19.413Z,69.16
2024-01-26T16:30:46.975Z,69.32
2024-01-26T16:33:14.749Z,69.71
2024-01-26T16:35:42.637Z,69.82
2024-01-26T16:38:10.169Z,69.92
2024-01-26T16:40:38.249Z,70.47
2024-01-26T16:43:05.929Z,70.16
2024-01-26T16:45:33.602Z,70.63
2024-01-26T16:48:01.186Z,70.69
2024-01-26T16:50:28.980Z,70.58
2024-01-26T16:52:56.648Z,70.66
2024-01-26T16:55:24.316Z,70.71
2024-01-26T16:57:51.864Z,70.66
2024-01-26T17:00:19.478Z,70.77
2024-01-26T17:02:47.293Z,70.95
2024-01-26T17:05:15.283Z,71.83
2024-01-26T17:07:43.028Z,72.87
2024-01-26T17:10:10.692Z,74.04
2024-01-26T17:12:38.354Z,74.85
2024-01-26T17:15:06.149Z,75.68
2024-01-26T17:17:34.014Z,76.78
2024-01-26T17:20:01.858Z,77.85
2024-01-26T17:22:29.516Z,78.77
2024-01-26T17:24:57.072Z,79.54
2024-01-26T17:27:24.699Z,80.16
2024-01-26T17:29:52.506Z,80.75
2024-01-26T17:32:20.469Z,81.17
2024-01-26T17:34:48.131Z,81.64
2024-01-26T17:37:15.930Z,82.19
2024-01-26T17:39:51.935Z,82.33
2024-01-26T17:42:27.536Z,82.91
2024-01-26T17:44:55.372Z,83.23
2024-01-26T17:47:22.926Z,83.37
2024-01-26T17:49:50.548Z,83.48
2024-01-26T17:52:18.135Z,83.81
2024-01-26T17:54:46.141Z,84.00
2024-01-26T17:57:13.926Z,84.29
2024-01-26T17:59:41.585Z,84.54
2024-01-26T18:02:09.204Z,84.60
2024-01-26T18:04:36.761Z,84.79
2024-01-26T18:07:04.438Z,85.16
2024-01-26T18:09:32.122Z,85.31
2024-01-26T18:11:59.765Z,85.69
2024-01-26T18:14:27.428Z,85.52
2024-01-26T18:16:55.058Z,85.64
2024-01-26T18:19:23.105Z,85.87
2024-01-26T18:21:51.016Z,86.07
2024-01-26T18:24:18.649Z,85.89
2024-01-26T18:26:46.559Z,86.17
2024-01-26T18:29:14.196Z,86.57
2024-01-26T18:31:41.850Z,86.50
2024-01-26T18:34:09.652Z,86.41
2024-01-26T18:36:37.383Z,86.45
2024-01-26T18:39:05.072Z,86.80
2024-01-26T18:41:32.810Z,87.05
2024-01-26T18:44:00.782Z,86.83
2024-01-26T18:46:28.371Z,87.19
2024-01-26T18:48:56.602Z,87.31
2024-01-26T18:51:24.625Z,87.38
2024-01-26T18:53:52.490Z,87.74
2024-01-26T18:56:20.209Z,87.95
2024-01-26T18:58:47.980Z,88.30
2024-01-26T19:01:16.989Z,88.47
2024-01-26T19:03:45.849Z,88.64
2024-01-26T19:06:14.193Z,89.03
2024-01-26T19:08:42.465Z,89.04
2024-01-26T19:11:10.474Z,89.14
2024-01-26T19:13:38.150Z,89.31
2024-01-26T19:16:06.017Z,89.40
2024-01-26T19:18:34.106Z,89.40
2024-01-26T19:21:01.971Z,90.19
2024-01-26T19:23:29.613Z,90.46
2024-01-26T19:25:57.271Z,90.64
2024-01-26T19:28:24.916Z,90.75
2024-01-26T19:30:52.694Z,90.60
2024-01-26T19:33:20.546Z,90.70
2024-01-26T19:35:48.831Z,91.09
2024-01-26T19:38:16.504Z,91.78
2024-01-26T19:40:44.188Z,92.82
2024-01-26T19:43:11.811Z,93.52
2024-01-26T19:45:39.489Z,93.93
2024-01-26T19:48:07.245Z,93.82
2024-01-26T19:50:34.899Z,93.56
2024-01-26T19:53:02.618Z,92.96
2024-01-26T19:55:30.331Z,92.31
2024-01-26T19:57:58.408Z,91.70
2024-01-26T20:00:26.243Z,91.21
2024-01-26T20:02:53.978Z,90.42
2024-01-26T20:05:21.702Z,89.50
2024-01-26T20:07:49.363Z,89.49
2024-01-26T20:10:17.652Z,89.54
2024-01-26T20:12:45.289Z,89.28
2024-01-26T20:15:12.986Z,88.31
2024-01-26T20:17:40.768Z,86.76
2024-01-26T20:20:08.488Z,87.16
2024-01-26T20:22:36.340Z,86.84
2024-01-26T20:25:04.435Z,86.69
2024-01-26T20:27:32.134Z,86.76
2024-01-26T20:29:59.927Z,86.79
2024-01-26T20:32:27.829Z,86.99
2024-01-26T20:34:55.692Z,87.19
2024-01-26T20:37:23.466Z,87.47
2024-01-26T20:39:51.203Z,87.44
2024-01-26T20:42:18.820Z,87.20
2024-01-26T20:44:46.560Z,86.69
2024-01-26T20:47:14.293Z,85.35
2024-01-26T20:49:42.279Z,84.93
2024-01-26T20:52:10.195Z,84.25
2024-01-26T20:54:38.000Z,83.52
2024-01-26T20:57:05.573Z,83.09
2024-01-26T20:59:33.228Z,83.35
2024-01-26T21:02:00.882Z,82.91
2024-01-26T21:04:28.647Z,83.07
2024-01-26T21:06:56.364Z,83.13
2024-01-26T21:09:24.200Z,82.86
2024-01-26T21:11:51.869Z,82.24
2024-01-26T21:14:19.908Z,82.45
2024-01-26T21:16:47.472Z,82.40
2024-01-26T21:19:15.213Z,82.25
2024-01-26T21:21:42.890Z,82.77
2024-01-26T21:24:10.622Z,83.06
2024-01-26T21:26:38.220Z,83.52
2024-01-26T21:29:05.874Z,84.22
2024-01-26T21:31:33.432Z,84.71
2024-01-26T21:34:01.122Z,84.95
2024-01-26T21:36:29.033Z,85.55
2024-01-26T21:38:57.211Z,85.42
2024-01-26T21:41:24.898Z,85.61
2024-01-26T21:43:52.662Z,85.37
2024-01-26T21:46:20.322Z,85.17
2024-01-26T21:48:48.223Z,85.01
2024-01-26T21:51:16.206Z,85.12
2024-01-26T21:53:44.070Z,85.72
2024-01-26T21:56:11.895Z,85.79
2024-01-26T21:58:39.548Z,85.73
2024-01-26T22:01:07.320Z,85.77
2024-01-26T22:03:35.383Z,85.94
2024-01-26T22:06:03.238Z,85.17
2024-01-26T22:08:30.940Z,85.04
2024-01-26T22:10:58.682Z,84.49
2024-01-26T22:13:26.248Z,84.27
2024-01-26T22:15:53.899Z,83.36
2024-01-26T22:18:21.613Z,83.40
2024-01-26T22:20:49.502Z,83.10
2024-01-26T22:23:17.179Z,82.85
2024-01-26T22:25:44.742Z,83.19
2024-01-26T22:28:12.302Z,83.07
2024-01-26T22:30:40.163Z,82.67
2024-01-26T22:33:07.812Z,82.10
2024-01-26T22:35:35.688Z,82.54
2024-01-26T22:38:03.351Z,82.32
2024-01-26T22:40:30.918Z,82.24
2024-01-26T22:42:58.580Z,81.74
2024-01-26T22:45:26.204Z,82.09
2024-01-26T22:47:54.122Z,82.45
2024-01-26T22:50:21.778Z,82.13
2024-01-26T22:52:49.438Z,81.89
2024-01-26T22:55:17.409Z,80.81
2024-01-26T22:57:45.059Z,79.38
2024-01-26T23:00:12.757Z,79.14
2024-01-26T23:02:40.457Z,79.16
2024-01-26T23:05:08.293Z,79.04
2024-01-26T23:07:35.916Z,79.28
2024-01-26T23:10:03.580Z,79.27
2024-01-26T23:12:31.292Z,79.58
2024-01-26T23:14:59.119Z,79.80
2024-01-26T23:17:26.657Z,79.37
2024-01-26T23:19:54.857Z,80.10
2024-01-26T23:22:22.599Z,80.11
2024-01-26T23:24:50.259Z,80.45
2024-01-26T23:27:17.860Z,80.66
2024-01-26T23:29:45.611Z,81.22
2024-01-26T23:32:13.362Z,81.32
2024-01-26T23:34:41.293Z,81.26
2024-01-26T23:37:08.869Z,80.97
2024-01-26T23:39:36.469Z,81.10
2024-01-26T23:42:04.111Z,81.14
2024-01-26T23:44:31.673Z,80.91
2024-01-26T23:46:59.721Z,80.86
2024-01-26T23:49:27.485Z,80.70
2024-01-26T23:51:55.143Z,81.22
2024-01-26T23:54:22.935Z,81.35
2024-01-26T23:56:50.586Z,81.70
2024-01-26T23:59:18.143Z,81.64
